Terminal Aerodrome Forecast
Issued by NWS Midland/Odessa, TX

Home | Current Version | Previous Version | Text Only | Print | Product List | Glossary On
Versions: 1 2 3 4 5 6 7 8 9 10 11 12 13 14 15 16 17 18 19 20 21
000
FTUS44 KMAF 041700
TAFMAF
TAF
KMAF 041721Z 0418/0518 05015G25KT 4SM -RA BR BKN008
     FM042100 05019G28KT 1SM -FZRAPL BR OVC006
     FM050200 04015G22KT 1SM -SN BR OVC004
     FM051200 04008KT P6SM BKN012=

USA.gov is the U.S. government's official web portal to all federal, state and local government web resources and services.